Airfield :
LOGIN :

Register | Disclaimer

   EN    FR    IT 

 










Legend :    VFR   Marginal VFR   IFR   Intensive IFR   Very Intensive IFR
Visi :
Ceiling :
>= 8 km
>= 3000ft
5 to 8 km
1000 to 3000 ft
1500m to 5 km
500 to 1000 ft
800 to 1500m
200 to 500 ft
< 800m
< 200 ft
Symbols :   Thunderstorms  Fog  Heavy snow  Heavy precipitations  Wind > 20 kt
SIGMETs :     Misc.  Thunderstorms  Icing  Turbulence  Mountain Waves  Volcanic Ashes







- Airport Elevation : 1367 ft
- IATA code : FDH


EDNY - Friedrichshafen

CURRENT METAR :
  • 191820Z AUTO VRB03KT 9999 FEW031 BKN044 18/14 Q1020

EXPIRED METARs :
  • 191750Z 27004KT 9999 FEW030 SCT035 19/14 Q1020
  • 191720Z VRB03KT 9999 FEW045 20/14 Q1020
  • 191650Z 18003KT 9999 FEW045 20/14 Q1020
  • 191620Z 13004KT 9999 FEW045 21/13 Q1020
  • 191550Z VRB03KT 9999 FEW047 SCT088 21/14 Q1020

TAF AMD TAF EDNY
Valid from the 19 at 18:00 until the 20 at 18:00 UTC


191802Z 1918/2018 VRB03KT 9999 SCT030 BKN055
PROB30
TEMPO 1918/1920 TSRA BKN030CB
BECMG 2008/2010 24005KT
BECMG 2016/2018 VRB03KT
No reported NOTAMs for that airfield.



MET'MAP, your aeronautical weather chart ! - Copyright ORBIFLY December 2007 - Disclaimer

ORBIFLY MET'MAP TEAM :

Programming & Development : Alexandra Zaïnal
Concept & Development : Baudouin d'Aumeries
Co-Development & Prog : Marc-Olivier Méhu
Technical & hardware support : Manuel Goepfert

Contact : metmap@orbifly.com




SOURCES & CREDITS :

   NOAA